createdAt,value
2022-08-26T00:01:44.781Z,22.33
2022-08-26T00:04:34.709Z,24.02
2022-08-26T00:07:22.901Z,21.88
2022-08-26T00:10:12.371Z,19.38
2022-08-26T00:13:00.625Z,20.83
2022-08-26T00:15:50.312Z,20.40
2022-08-26T00:18:40.774Z,20.15
2022-08-26T00:21:30.386Z,17.73
2022-08-26T00:24:19.076Z,20.55
2022-08-26T00:27:07.397Z,15.23
2022-08-26T00:29:55.589Z,25.20
2022-08-26T00:32:46.425Z,25.67
2022-08-26T00:35:35.123Z,26.08
2022-08-26T00:38:26.215Z,28.90
2022-08-26T00:41:14.759Z,25.48
2022-08-26T00:44:05.584Z,28.35
2022-08-26T00:46:58.400Z,21.27
2022-08-26T00:49:48.919Z,21.08
2022-08-26T00:52:38.494Z,25.30
2022-08-26T00:55:34.647Z,18.63
2022-08-26T00:58:32.707Z,15.88
2022-08-26T01:01:23.114Z,17.65
2022-08-26T01:04:12.698Z,24.02
2022-08-26T01:07:02.251Z,21.45
2022-08-26T01:09:50.755Z,16.00
2022-08-26T01:12:43.739Z,16.95
2022-08-26T01:15:36.470Z,22.63
2022-08-26T01:18:25.684Z,15.00
2022-08-26T01:21:22.551Z,17.33
2022-08-26T01:24:13.871Z,22.98
2022-08-26T01:27:06.075Z,25.77
2022-08-26T01:29:55.603Z,18.42
2022-08-26T01:32:44.737Z,20.80
2022-08-26T01:35:33.522Z,21.13
2022-08-26T01:38:23.641Z,20.67
2022-08-26T01:41:19.822Z,16.98
2022-08-26T01:44:15.723Z,20.65
2022-08-26T01:47:06.499Z,16.63
2022-08-26T01:49:57.515Z,21.65
2022-08-26T01:52:49.888Z,21.20
2022-08-26T01:55:46.092Z,19.35
2022-08-26T01:58:43.848Z,21.60
2022-08-26T02:01:32.664Z,20.75
2022-08-26T02:04:25.208Z,24.38
2022-08-26T02:07:13.844Z,21.08
2022-08-26T02:10:02.469Z,18.40
2022-08-26T02:12:51.623Z,22.65
2022-08-26T02:15:43.984Z,19.02
2022-08-26T02:18:36.579Z,17.58
2022-08-26T02:21:25.360Z,20.58
2022-08-26T02:24:16.934Z,24.85
2022-08-26T02:27:06.730Z,18.83
2022-08-26T02:29:58.044Z,24.58
2022-08-26T02:32:49.559Z,15.77
2022-08-26T02:35:39.231Z,27.35
2022-08-26T02:38:27.794Z,25.15
2022-08-26T02:41:16.122Z,23.35
2022-08-26T02:44:07.194Z,20.40
2022-08-26T02:46:55.569Z,23.02
2022-08-26T02:49:47.384Z,21.60
2022-08-26T02:52:35.707Z,27.88
2022-08-26T02:55:24.909Z,27.90
2022-08-26T02:58:13.064Z,23.33
2022-08-26T03:01:01.780Z,21.23
2022-08-26T03:03:53.309Z,24.42
2022-08-26T03:06:42.994Z,23.83
2022-08-26T03:09:35.881Z,23.08
2022-08-26T03:12:24.040Z,19.63
2022-08-26T03:15:17.813Z,22.20
2022-08-26T03:18:06.670Z,27.15
2022-08-26T03:20:55.444Z,33.00
2022-08-26T03:23:46.070Z,20.92
2022-08-26T03:26:34.340Z,20.25
2022-08-26T03:32:30.673Z,20.73
2022-08-26T03:35:19.032Z,26.10
2022-08-26T03:38:11.422Z,29.77
2022-08-26T03:41:01.328Z,25.50
2022-08-26T03:43:50.939Z,25.45
2022-08-26T03:46:39.674Z,27.92
2022-08-26T03:49:29.022Z,27.35
2022-08-26T03:52:17.310Z,28.77
2022-08-26T03:55:07.068Z,22.45
2022-08-26T03:57:56.536Z,23.17
2022-08-26T04:00:45.846Z,26.50
2022-08-26T04:03:52.141Z,30.10
2022-08-26T04:06:43.302Z,30.08
2022-08-26T04:09:32.961Z,28.65
2022-08-26T04:12:25.486Z,30.20
2022-08-26T04:15:17.772Z,28.17
2022-08-26T04:18:06.273Z,26.67
2022-08-26T04:20:54.719Z,28.17
2022-08-26T04:23:47.616Z,24.67
2022-08-26T04:26:39.495Z,25.10
2022-08-26T04:29:31.152Z,25.55
2022-08-26T04:32:21.196Z,24.85
2022-08-26T04:35:09.768Z,30.83
2022-08-26T04:37:58.877Z,31.95
2022-08-26T04:40:47.588Z,32.90
2022-08-26T04:43:35.770Z,27.27
2022-08-26T04:46:25.925Z,29.35
2022-08-26T04:49:15.585Z,31.77
2022-08-26T04:52:05.006Z,27.77
2022-08-26T04:54:53.378Z,29.55
2022-08-26T04:57:41.545Z,26.45
2022-08-26T05:00:29.760Z,27.35
2022-08-26T05:03:18.855Z,32.58
2022-08-26T05:06:08.769Z,35.08
2022-08-26T05:08:57.853Z,28.60
2022-08-26T05:11:48.586Z,24.13
2022-08-26T05:14:41.569Z,31.77
2022-08-26T05:17:29.819Z,32.55
2022-08-26T05:20:20.649Z,28.48
2022-08-26T05:23:15.928Z,27.70
2022-08-26T05:26:09.146Z,28.80
2022-08-26T05:28:59.017Z,27.88
2022-08-26T05:31:47.606Z,31.23
2022-08-26T05:34:37.474Z,29.10
2022-08-26T05:40:17.110Z,23.45
2022-08-26T05:43:10.390Z,30.83
2022-08-26T05:46:07.286Z,34.80
2022-08-26T05:48:55.709Z,30.73
2022-08-26T05:51:46.346Z,25.30
2022-08-26T05:54:36.025Z,26.45
2022-08-26T05:57:25.638Z,24.95
2022-08-26T06:00:16.169Z,25.42
2022-08-26T06:03:05.154Z,32.05
2022-08-26T06:05:53.553Z,27.10
2022-08-26T06:08:42.202Z,33.05
2022-08-26T06:11:32.636Z,27.38
2022-08-26T06:14:22.994Z,28.38
2022-08-26T06:17:11.323Z,27.77
2022-08-26T06:20:01.589Z,40.40
2022-08-26T06:23:06.711Z,27.88
2022-08-26T06:25:55.340Z,29.60
2022-08-26T06:28:45.816Z,29.73
2022-08-26T06:31:36.813Z,28.17
2022-08-26T06:34:26.590Z,29.95
2022-08-26T06:37:18.160Z,22.38
2022-08-26T06:40:07.497Z,28.50
2022-08-26T06:42:55.867Z,25.58
2022-08-26T06:45:45.844Z,23.75
2022-08-26T06:48:37.289Z,23.75
2022-08-26T06:51:27.561Z,25.30
2022-08-26T06:54:15.917Z,32.67
2022-08-26T06:57:04.117Z,26.52
2022-08-26T06:59:52.325Z,28.13
2022-08-26T07:02:40.648Z,30.83
2022-08-26T07:05:36.762Z,28.52
2022-08-26T07:08:24.937Z,28.00
2022-08-26T07:11:13.394Z,25.38
2022-08-26T07:14:01.993Z,23.73
2022-08-26T07:16:50.878Z,25.77
2022-08-26T07:19:39.071Z,23.83
2022-08-26T07:22:29.170Z,22.38
2022-08-26T07:25:19.142Z,23.50
2022-08-26T07:28:07.707Z,29.08
2022-08-26T07:30:56.181Z,25.85
2022-08-26T07:33:47.082Z,25.52
2022-08-26T07:36:35.820Z,24.00
2022-08-26T07:39:26.432Z,24.00
2022-08-26T07:42:18.492Z,24.52
2022-08-26T07:45:07.717Z,28.23
2022-08-26T07:47:55.952Z,25.75
2022-08-26T07:50:50.137Z,26.63
2022-08-26T07:53:39.850Z,19.13
2022-08-26T07:56:29.384Z,22.88
2022-08-26T07:59:18.685Z,24.52
2022-08-26T08:02:07.049Z,26.23
2022-08-26T08:04:56.847Z,25.35
2022-08-26T08:07:45.623Z,23.77
2022-08-26T08:10:36.498Z,23.05
2022-08-26T08:13:26.267Z,32.40
2022-08-26T08:16:14.565Z,19.90
2022-08-26T08:19:02.802Z,22.13
2022-08-26T08:21:52.060Z,23.73
2022-08-26T08:24:40.716Z,25.65
2022-08-26T08:27:28.929Z,24.88
2022-08-26T08:30:22.864Z,38.45
2022-08-26T08:33:12.461Z,24.60
2022-08-26T08:36:02.081Z,23.33
2022-08-26T08:38:50.896Z,30.23
2022-08-26T08:41:52.465Z,34.78
2022-08-26T08:44:44.085Z,25.85
2022-08-26T08:47:37.997Z,26.38
2022-08-26T08:50:29.605Z,24.83
2022-08-26T08:53:23.148Z,25.58
2022-08-26T08:56:17.730Z,24.13
2022-08-26T08:59:14.838Z,23.75
2022-08-26T09:02:11.192Z,32.42
2022-08-26T09:05:22.373Z,33.22
2022-08-26T09:13:52.346Z,27.33
2022-08-26T09:19:41.078Z,24.27
2022-08-26T09:22:32.560Z,28.55
2022-08-26T09:25:22.221Z,25.10
2022-08-26T09:28:16.863Z,28.23
2022-08-26T09:31:14.131Z,28.55
2022-08-26T09:34:17.487Z,24.40
2022-08-26T09:37:06.067Z,23.60
2022-08-26T09:40:12.211Z,27.00
2022-08-26T09:43:10.661Z,26.50
2022-08-26T09:46:13.464Z,29.00
2022-08-26T09:49:27.582Z,33.13
2022-08-26T09:52:22.397Z,23.40
2022-08-26T09:55:16.115Z,26.92
2022-08-26T09:58:07.896Z,28.02
2022-08-26T10:01:01.453Z,36.13
2022-08-26T10:03:50.280Z,25.80
2022-08-26T10:06:42.135Z,23.52
2022-08-26T10:09:34.005Z,28.92
2022-08-26T10:12:24.250Z,28.42
2022-08-26T10:18:08.174Z,22.50
2022-08-26T10:21:07.280Z,21.08
2022-08-26T10:23:59.856Z,24.73
2022-08-26T10:27:02.231Z,23.90
2022-08-26T10:29:54.292Z,24.80
2022-08-26T10:32:45.403Z,28.80
2022-08-26T10:35:36.085Z,27.98
2022-08-26T10:38:30.460Z,30.50
2022-08-26T10:41:24.198Z,22.60
2022-08-26T10:44:16.173Z,28.55
2022-08-26T10:47:14.027Z,28.80
2022-08-26T10:50:04.613Z,28.95
2022-08-26T10:53:03.036Z,27.38
2022-08-26T10:55:57.556Z,29.05
2022-08-26T10:58:58.392Z,27.90
2022-08-26T11:01:52.464Z,26.58
2022-08-26T11:04:49.849Z,24.90
2022-08-26T11:07:41.810Z,20.60
2022-08-26T11:10:57.956Z,30.10
2022-08-26T11:14:04.424Z,29.48
2022-08-26T11:16:55.133Z,33.50
2022-08-26T11:20:03.288Z,30.60
2022-08-26T11:22:59.620Z,24.15
2022-08-26T11:26:32.734Z,20.23
2022-08-26T11:29:59.297Z,22.10
2022-08-26T11:32:52.293Z,25.80
2022-08-26T11:35:50.782Z,22.55
2022-08-26T11:41:31.927Z,24.83
2022-08-26T11:44:21.830Z,21.20
2022-08-26T11:47:11.645Z,19.08
2022-08-26T11:50:15.239Z,24.17
2022-08-26T11:53:06.590Z,19.90
2022-08-26T11:55:58.149Z,17.13
2022-08-26T11:58:48.008Z,17.42
2022-08-26T12:01:38.069Z,23.42
2022-08-26T12:04:31.022Z,20.38
2022-08-26T12:07:25.747Z,19.17
2022-08-26T12:10:29.797Z,20.95
2022-08-26T12:13:22.977Z,21.08
2022-08-26T12:16:11.200Z,21.70
2022-08-26T12:18:59.885Z,20.23
2022-08-26T12:21:49.859Z,22.88
2022-08-26T12:24:44.940Z,16.73
2022-08-26T12:27:39.798Z,16.73
2022-08-26T12:30:29.706Z,20.98
2022-08-26T12:33:22.785Z,20.50
2022-08-26T12:36:12.136Z,18.73
2022-08-26T12:39:09.145Z,16.95
2022-08-26T12:41:59.102Z,21.13
2022-08-26T12:44:54.193Z,16.33
2022-08-26T12:47:44.547Z,24.00
2022-08-26T12:53:24.635Z,16.98
2022-08-26T12:56:28.236Z,18.95
2022-08-26T12:59:25.016Z,18.55
2022-08-26T13:02:37.718Z,16.75
2022-08-26T13:05:28.664Z,28.05
2022-08-26T13:08:25.781Z,19.70
2022-08-26T13:11:16.746Z,25.05
2022-08-26T13:14:07.581Z,9.60
2022-08-26T13:16:55.810Z,8.45
2022-08-26T13:19:45.340Z,12.25
2022-08-26T13:22:34.228Z,5.15
2022-08-26T13:25:22.538Z,10.50
2022-08-26T13:28:10.750Z,7.45
2022-08-26T13:30:59.734Z,14.32
2022-08-26T13:33:48.550Z,8.40
2022-08-26T13:36:39.165Z,9.07
2022-08-26T13:39:28.168Z,9.68
2022-08-26T13:42:16.521Z,5.57
2022-08-26T13:45:06.470Z,9.27
2022-08-26T13:47:54.624Z,6.55
2022-08-26T13:50:42.938Z,11.68
2022-08-26T13:53:32.656Z,8.50
2022-08-26T13:56:21.471Z,7.82
2022-08-26T13:59:09.942Z,11.40
2022-08-26T14:01:58.754Z,8.80
2022-08-26T14:04:47.413Z,11.33
2022-08-26T14:07:35.600Z,12.93
2022-08-26T14:10:25.745Z,13.30
2022-08-26T14:16:03.877Z,10.48
2022-08-26T14:18:52.626Z,9.30
2022-08-26T14:21:40.793Z,10.65
2022-08-26T14:24:29.268Z,6.15
2022-08-26T14:27:18.794Z,12.27
2022-08-26T14:30:08.361Z,8.93
2022-08-26T14:32:59.488Z,11.23
2022-08-26T14:35:49.026Z,7.97
2022-08-26T14:38:38.124Z,11.38
2022-08-26T14:41:27.141Z,9.18
2022-08-26T14:44:18.512Z,6.95
2022-08-26T14:47:07.433Z,14.15
2022-08-26T14:49:55.610Z,9.73
2022-08-26T14:53:01.713Z,8.45
2022-08-26T14:55:50.484Z,12.98
2022-08-26T14:58:38.744Z,9.30
2022-08-26T15:01:30.982Z,14.18
2022-08-26T15:04:20.390Z,11.20
2022-08-26T15:07:12.763Z,11.98
2022-08-26T15:10:01.101Z,13.27
2022-08-26T15:12:49.658Z,12.43
2022-08-26T15:15:38.017Z,11.45
2022-08-26T15:18:27.557Z,10.90
2022-08-26T15:21:15.766Z,10.27
2022-08-26T15:24:05.920Z,10.32
2022-08-26T15:26:54.621Z,12.20
2022-08-26T15:29:42.836Z,9.02
2022-08-26T15:32:31.337Z,8.23
2022-08-26T15:35:20.869Z,7.60
2022-08-26T15:38:09.197Z,10.18
2022-08-26T15:41:01.013Z,6.65
2022-08-26T15:43:51.485Z,6.72
2022-08-26T15:46:39.950Z,8.60
2022-08-26T15:49:28.507Z,8.25
2022-08-26T15:52:18.929Z,6.68
2022-08-26T15:55:08.106Z,3.35
2022-08-26T15:57:56.346Z,5.43
2022-08-26T16:00:45.273Z,7.40
2022-08-26T16:03:33.588Z,4.70
2022-08-26T16:06:24.624Z,8.07
2022-08-26T16:09:14.173Z,6.82
2022-08-26T16:12:02.440Z,5.60
2022-08-26T16:14:51.438Z,4.55
2022-08-26T16:17:41.069Z,6.80
2022-08-26T16:20:29.513Z,4.68
2022-08-26T16:23:17.843Z,5.95
2022-08-26T16:26:11.375Z,6.50
2022-08-26T16:28:59.610Z,6.60
2022-08-26T16:31:51.905Z,7.95
2022-08-26T16:34:56.770Z,6.47
2022-08-26T16:37:45.820Z,9.68
2022-08-26T16:40:34.397Z,6.80
2022-08-26T16:43:23.953Z,4.18
2022-08-26T16:46:14.186Z,6.22
2022-08-26T16:49:04.161Z,7.53
2022-08-26T16:51:52.347Z,9.02
2022-08-26T16:54:41.551Z,7.28
2022-08-26T16:57:29.737Z,6.65
2022-08-26T17:00:24.484Z,5.57
2022-08-26T17:03:13.009Z,6.72
2022-08-26T17:06:01.411Z,4.50
2022-08-26T17:08:49.668Z,6.25
2022-08-26T17:11:37.929Z,5.30
2022-08-26T17:14:26.134Z,6.55
2022-08-26T17:17:15.716Z,6.38
2022-08-26T17:20:08.408Z,7.55
2022-08-26T17:22:56.892Z,5.78
2022-08-26T17:25:45.462Z,7.65
2022-08-26T17:28:34.084Z,6.20
2022-08-26T17:31:23.376Z,6.38
2022-08-26T17:34:13.007Z,5.67
2022-08-26T17:37:01.289Z,6.20
2022-08-26T17:39:49.526Z,9.93
2022-08-26T17:42:38.329Z,7.60
2022-08-26T17:45:27.280Z,8.32
2022-08-26T17:48:15.493Z,6.05
2022-08-26T17:51:09.378Z,6.95
2022-08-26T17:53:57.807Z,6.82
2022-08-26T17:56:45.984Z,11.30
2022-08-26T17:59:34.182Z,6.90
2022-08-26T18:02:23.366Z,7.28
2022-08-26T18:05:13.589Z,8.50
2022-08-26T18:10:51.808Z,8.30
2022-08-26T18:13:46.048Z,8.13
2022-08-26T18:16:38.401Z,13.90
2022-08-26T18:19:26.808Z,9.93
2022-08-26T18:22:15.726Z,9.23
2022-08-26T18:25:06.930Z,9.88
2022-08-26T18:27:55.123Z,7.30
2022-08-26T18:30:43.582Z,8.88
2022-08-26T18:33:31.806Z,9.98
2022-08-26T18:36:23.160Z,8.98
2022-08-26T18:39:12.523Z,13.02
2022-08-26T18:42:02.041Z,9.85
2022-08-26T18:44:51.234Z,8.98
2022-08-26T18:47:39.761Z,9.95
2022-08-26T18:50:28.277Z,11.73
2022-08-26T18:53:17.588Z,6.80
2022-08-26T18:56:05.854Z,7.95
2022-08-26T18:58:55.508Z,8.48
2022-08-26T19:01:45.268Z,7.93
2022-08-26T19:04:33.744Z,7.25
2022-08-26T19:07:22.461Z,9.35
2022-08-26T19:10:11.593Z,7.45
2022-08-26T19:13:00.875Z,8.23
2022-08-26T19:15:52.158Z,9.55
2022-08-26T19:18:40.401Z,6.60
2022-08-26T19:21:29.524Z,7.72
2022-08-26T19:24:18.869Z,5.30
2022-08-26T19:27:08.309Z,8.95
2022-08-26T19:29:58.393Z,8.55
2022-08-26T19:32:47.914Z,11.60
2022-08-26T19:35:37.133Z,21.23
2022-08-26T19:38:25.320Z,11.10
2022-08-26T19:41:19.233Z,8.88
2022-08-26T19:44:10.321Z,8.73
2022-08-26T19:46:58.461Z,11.27
2022-08-26T19:49:48.007Z,6.85
2022-08-26T19:52:36.475Z,13.13
2022-08-26T19:55:26.145Z,9.07
2022-08-26T19:58:14.536Z,18.80
2022-08-26T20:01:02.837Z,10.52
2022-08-26T20:03:51.378Z,11.88
2022-08-26T20:06:41.005Z,11.05
2022-08-26T20:09:29.970Z,14.77
2022-08-26T20:12:18.693Z,12.43
2022-08-26T20:15:08.084Z,12.77
2022-08-26T20:17:56.273Z,11.07
2022-08-26T20:21:02.085Z,12.45
2022-08-26T20:23:51.898Z,15.45
2022-08-26T20:26:42.036Z,16.45
2022-08-26T20:29:30.259Z,13.07
2022-08-26T20:32:18.505Z,16.58
2022-08-26T20:35:08.677Z,12.07
2022-08-26T20:37:56.858Z,15.68
2022-08-26T20:40:46.577Z,14.63
2022-08-26T20:43:34.788Z,14.93
2022-08-26T20:46:24.836Z,17.20
2022-08-26T20:49:14.790Z,19.63
2022-08-26T20:52:03.197Z,18.67
2022-08-26T20:54:51.406Z,23.08
2022-08-26T20:57:43.329Z,20.83
2022-08-26T21:00:31.563Z,17.65
2022-08-26T21:03:19.971Z,15.52
2022-08-26T21:06:09.117Z,20.63
2022-08-26T21:08:57.855Z,16.60
2022-08-26T21:11:46.365Z,19.92
2022-08-26T21:14:35.872Z,18.55
2022-08-26T21:17:24.254Z,17.77
2022-08-26T21:20:12.404Z,17.33
2022-08-26T21:23:00.626Z,17.08
2022-08-26T21:25:49.620Z,17.55
2022-08-26T21:28:39.345Z,20.08
2022-08-26T21:31:29.657Z,14.83
2022-08-26T21:34:18.995Z,17.92
2022-08-26T21:37:16.417Z,14.30
2022-08-26T21:40:05.955Z,15.82
2022-08-26T21:42:54.180Z,16.98
2022-08-26T21:45:42.476Z,19.88
2022-08-26T21:48:34.738Z,23.88
2022-08-26T21:51:26.052Z,21.88
2022-08-26T21:54:14.952Z,17.48
2022-08-26T21:57:03.477Z,16.13
2022-08-26T21:59:52.419Z,16.08
2022-08-26T22:02:40.679Z,21.30
2022-08-26T22:05:30.482Z,16.70
2022-08-26T22:08:19.805Z,17.40
2022-08-26T22:11:09.518Z,16.17
2022-08-26T22:13:57.965Z,20.23
2022-08-26T22:16:50.726Z,14.23
2022-08-26T22:19:46.282Z,13.48
2022-08-26T22:22:36.224Z,16.80
2022-08-26T22:25:24.453Z,18.73
2022-08-26T22:28:12.711Z,16.00
2022-08-26T22:31:01.983Z,13.73
2022-08-26T22:33:50.520Z,11.00
2022-08-26T22:36:44.027Z,8.32
2022-08-26T22:39:34.180Z,10.55
2022-08-26T22:42:22.440Z,6.40
2022-08-26T22:45:12.204Z,8.57
2022-08-26T22:48:04.583Z,8.57
2022-08-26T22:50:59.583Z,9.07
2022-08-26T22:53:48.464Z,7.93
2022-08-26T22:56:38.479Z,9.25
2022-08-26T22:59:27.025Z,10.48
2022-08-26T23:02:15.506Z,10.85
2022-08-26T23:05:03.679Z,12.85
2022-08-26T23:07:51.912Z,13.27
2022-08-26T23:10:42.639Z,14.45
2022-08-26T23:13:32.152Z,12.05
2022-08-26T23:16:21.144Z,13.52
2022-08-26T23:19:10.265Z,14.35
2022-08-26T23:21:58.423Z,12.70
2022-08-26T23:24:46.593Z,14.25
2022-08-26T23:27:35.270Z,11.38
2022-08-26T23:30:27.363Z,12.70
2022-08-26T23:33:15.590Z,13.43
2022-08-26T23:36:06.578Z,15.65
2022-08-26T23:38:54.989Z,20.25
2022-08-26T23:41:44.465Z,22.00
2022-08-26T23:44:33.244Z,16.73
2022-08-26T23:47:22.804Z,14.75
2022-08-26T23:50:11.942Z,11.18
2022-08-26T23:53:08.824Z,13.15
2022-08-26T23:55:56.979Z,12.63
2022-08-26T23:58:45.321Z,11.90
